createdAt,value
2016-09-26T00:00:20.316Z,48.71
2016-09-26T00:00:52.642Z,48.69
2016-09-26T00:01:24.960Z,48.69
2016-09-26T00:01:57.287Z,48.59
2016-09-26T00:02:29.628Z,48.88
2016-09-26T00:03:01.955Z,48.49
2016-09-26T00:03:34.282Z,48.69
2016-09-26T00:04:06.603Z,48.88
2016-09-26T00:04:38.937Z,48.88
2016-09-26T00:05:11.263Z,48.88
2016-09-26T00:05:43.605Z,48.59
2016-09-26T00:06:15.967Z,48.59
2016-09-26T00:06:48.290Z,48.88
2016-09-26T00:07:20.620Z,48.69
2016-09-26T00:07:52.959Z,48.79
2016-09-26T00:08:25.271Z,48.88
2016-09-26T00:08:57.608Z,48.88
2016-09-26T00:09:29.980Z,48.79
2016-09-26T00:10:02.298Z,48.88
2016-09-26T00:10:34.625Z,48.88
2016-09-26T00:11:06.946Z,48.88
2016-09-26T00:11:39.264Z,48.79
2016-09-26T00:12:11.604Z,48.69
2016-09-26T00:12:43.920Z,48.97
2016-09-26T00:13:16.245Z,48.69
2016-09-26T00:13:48.576Z,48.69
2016-09-26T00:14:20.896Z,48.88
2016-09-26T00:14:53.211Z,48.88
2016-09-26T00:15:25.550Z,48.97
2016-09-26T00:15:57.864Z,48.69
2016-09-26T00:16:30.177Z,48.88
2016-09-26T00:17:02.504Z,48.97
2016-09-26T00:17:34.836Z,48.88
2016-09-26T00:18:07.155Z,48.97
2016-09-26T00:18:39.499Z,48.88
2016-09-26T00:19:11.829Z,48.88
2016-09-26T00:19:44.159Z,48.97
2016-09-26T00:20:16.486Z,48.88
2016-09-26T00:20:48.813Z,48.79
2016-09-26T00:21:21.145Z,48.79
2016-09-26T00:21:53.478Z,48.79
2016-09-26T00:22:25.817Z,49.07
2016-09-26T00:22:58.146Z,48.97
2016-09-26T00:23:30.475Z,49.07
2016-09-26T00:24:02.797Z,48.88
2016-09-26T00:24:35.108Z,48.97
2016-09-26T00:25:07.426Z,48.97
2016-09-26T00:25:39.753Z,48.88
2016-09-26T00:26:12.083Z,48.88
2016-09-26T00:26:44.417Z,48.79
2016-09-26T00:27:16.755Z,48.97
2016-09-26T00:27:49.080Z,49.07
2016-09-26T00:28:21.417Z,49.07
2016-09-26T00:28:53.750Z,48.97
2016-09-26T00:29:26.065Z,49.07
2016-09-26T00:29:58.397Z,49.07
2016-09-26T00:30:30.725Z,49.07
2016-09-26T00:31:03.059Z,48.88
2016-09-26T00:31:35.392Z,48.88
2016-09-26T00:32:07.701Z,49.17
2016-09-26T00:32:40.029Z,49.07
2016-09-26T00:33:12.346Z,49.27
2016-09-26T00:33:44.666Z,49.07
2016-09-26T00:34:16.982Z,49.17
2016-09-26T00:34:49.283Z,49.27
2016-09-26T00:35:21.602Z,48.97
2016-09-26T00:35:53.921Z,48.97
2016-09-26T00:36:26.255Z,48.88
2016-09-26T00:36:58.577Z,48.97
2016-09-26T00:37:30.909Z,48.88
2016-09-26T00:38:03.239Z,48.97
2016-09-26T00:38:35.574Z,48.97
2016-09-26T00:39:07.897Z,49.46
2016-09-26T00:39:40.209Z,49.17
2016-09-26T00:40:12.532Z,49.17
2016-09-26T00:40:44.844Z,48.97
2016-09-26T00:41:17.177Z,49.17
2016-09-26T00:41:49.497Z,48.97
2016-09-26T00:42:21.821Z,49.17
2016-09-26T00:42:54.154Z,49.27
2016-09-26T00:43:26.489Z,49.27
2016-09-26T00:43:58.811Z,48.97
2016-09-26T00:44:31.119Z,48.97
2016-09-26T00:45:03.444Z,49.07
2016-09-26T00:45:35.765Z,49.07
2016-09-26T00:46:08.086Z,49.17
2016-09-26T00:46:40.407Z,49.07
2016-09-26T00:47:12.737Z,49.17
2016-09-26T00:47:45.063Z,49.07
2016-09-26T00:48:17.398Z,49.07
2016-09-26T00:48:49.737Z,49.07
2016-09-26T00:49:22.072Z,49.17
2016-09-26T00:49:54.407Z,49.07
2016-09-26T00:50:26.744Z,49.07
2016-09-26T00:50:59.086Z,49.17
2016-09-26T00:51:31.436Z,49.17
2016-09-26T00:52:03.764Z,49.27
2016-09-26T00:52:36.100Z,49.37
2016-09-26T00:53:08.428Z,49.37
2016-09-26T00:53:40.768Z,49.27
2016-09-26T00:54:13.097Z,49.46
2016-09-26T00:54:45.438Z,49.37
2016-09-26T00:55:17.772Z,49.17
2016-09-26T00:55:50.103Z,49.17
2016-09-26T00:56:22.436Z,49.27
2016-09-26T00:56:54.767Z,49.46
2016-09-26T00:57:27.088Z,49.37
2016-09-26T00:57:59.390Z,49.27
2016-09-26T00:58:31.727Z,49.27
2016-09-26T00:59:04.055Z,49.17
2016-09-26T00:59:36.397Z,49.17
2016-09-26T01:00:08.718Z,49.17
2016-09-26T01:00:41.053Z,49.37
2016-09-26T01:01:13.392Z,49.17
2016-09-26T01:01:45.743Z,49.37
2016-09-26T01:02:18.076Z,49.46
2016-09-26T01:02:50.414Z,49.27
2016-09-26T01:03:22.748Z,49.17
2016-09-26T01:03:55.088Z,49.27
2016-09-26T01:04:27.413Z,49.55
2016-09-26T01:04:59.745Z,48.97
2016-09-26T01:05:32.069Z,49.27
2016-09-26T01:06:04.412Z,49.46
2016-09-26T01:06:36.729Z,49.17
2016-09-26T01:07:09.045Z,49.17
2016-09-26T01:07:41.359Z,49.27
2016-09-26T01:08:13.693Z,49.27
2016-09-26T01:08:46.034Z,49.37
2016-09-26T01:09:18.353Z,49.27
2016-09-26T01:09:50.672Z,49.27
2016-09-26T01:10:22.997Z,49.27
2016-09-26T01:10:55.332Z,49.55
2016-09-26T01:11:27.660Z,49.27
2016-09-26T01:11:59.993Z,49.17
2016-09-26T01:12:32.326Z,49.37
2016-09-26T01:13:04.654Z,49.53
2016-09-26T01:13:36.991Z,49.65
2016-09-26T01:14:09.331Z,49.65
2016-09-26T01:14:41.665Z,49.24
2016-09-26T01:15:13.998Z,49.37
2016-09-26T01:15:46.325Z,49.37
2016-09-26T01:16:18.649Z,49.34
2016-09-26T01:16:50.967Z,49.53
2016-09-26T01:17:23.290Z,49.15
2016-09-26T01:17:55.610Z,49.46
2016-09-26T01:18:27.939Z,49.55
2016-09-26T01:19:00.263Z,49.43
2016-09-26T01:19:32.597Z,49.53
2016-09-26T01:20:04.931Z,49.65
2016-09-26T01:20:37.275Z,49.65
2016-09-26T01:21:09.601Z,49.53
2016-09-26T01:21:41.945Z,49.43
2016-09-26T01:22:14.278Z,49.73
2016-09-26T01:22:46.603Z,49.34
2016-09-26T01:23:18.931Z,49.53
2016-09-26T01:23:51.256Z,49.07
2016-09-26T01:24:23.584Z,49.46
2016-09-26T01:24:55.909Z,49.43
2016-09-26T01:25:28.230Z,49.34
2016-09-26T01:26:00.557Z,49.53
2016-09-26T01:26:32.885Z,49.05
2016-09-26T01:27:05.219Z,49.43
2016-09-26T01:27:37.554Z,49.43
2016-09-26T01:28:09.892Z,49.43
2016-09-26T01:28:42.215Z,49.43
2016-09-26T01:29:14.545Z,49.24
2016-09-26T01:29:46.877Z,49.24
2016-09-26T01:30:19.212Z,49.43
2016-09-26T01:30:51.537Z,49.63
2016-09-26T01:31:23.862Z,49.24
2016-09-26T01:31:56.195Z,49.63
2016-09-26T01:32:28.540Z,49.73
2016-09-26T01:33:00.867Z,49.82
2016-09-26T01:33:33.199Z,49.53
2016-09-26T01:34:05.535Z,49.73
2016-09-26T01:34:37.872Z,49.53
2016-09-26T01:35:10.207Z,49.43
2016-09-26T01:35:42.547Z,49.63
2016-09-26T01:36:14.880Z,49.63
2016-09-26T01:36:47.216Z,49.73
2016-09-26T01:37:19.547Z,49.63
2016-09-26T01:37:51.876Z,49.43
2016-09-26T01:38:24.226Z,49.73
2016-09-26T01:38:56.570Z,49.63
2016-09-26T01:39:28.887Z,49.34
2016-09-26T01:40:01.206Z,49.63
2016-09-26T01:40:33.533Z,49.82
2016-09-26T01:41:05.863Z,49.53
2016-09-26T01:41:38.201Z,49.43
2016-09-26T01:42:10.523Z,49.43
2016-09-26T01:42:42.838Z,49.53
2016-09-26T01:43:15.155Z,49.43
2016-09-26T01:43:47.475Z,49.34
2016-09-26T01:44:19.778Z,49.53
2016-09-26T01:44:52.106Z,50.01
2016-09-26T01:45:24.427Z,49.43
2016-09-26T01:45:56.740Z,49.43
2016-09-26T01:46:29.051Z,49.82
2016-09-26T01:47:01.375Z,49.82
2016-09-26T01:47:33.693Z,49.73
2016-09-26T01:48:06.013Z,49.63
2016-09-26T01:48:38.330Z,49.63
2016-09-26T01:49:10.654Z,49.63
2016-09-26T01:49:42.991Z,49.53
2016-09-26T01:50:15.314Z,49.73
2016-09-26T01:50:47.627Z,49.73
2016-09-26T01:51:19.954Z,49.53
2016-09-26T01:51:52.268Z,49.63
2016-09-26T01:52:24.585Z,49.73
2016-09-26T01:52:56.914Z,49.43
2016-09-26T01:53:29.236Z,49.53
2016-09-26T01:54:01.554Z,49.53
2016-09-26T01:54:33.876Z,49.82
2016-09-26T01:55:06.205Z,49.53
2016-09-26T01:55:38.524Z,49.63
2016-09-26T01:56:10.852Z,49.73
2016-09-26T01:56:43.185Z,49.63
2016-09-26T01:57:15.507Z,49.63
2016-09-26T01:57:47.826Z,49.63
2016-09-26T01:58:20.140Z,49.34
2016-09-26T01:58:52.470Z,49.43
2016-09-26T01:59:24.801Z,49.43
2016-09-26T01:59:57.133Z,49.63
2016-09-26T02:00:29.449Z,49.53
2016-09-26T02:01:01.790Z,49.53
2016-09-26T02:01:34.116Z,50.01
2016-09-26T02:02:06.445Z,49.63
2016-09-26T02:02:38.777Z,49.63
2016-09-26T02:03:11.104Z,50.11
2016-09-26T02:03:43.432Z,50.11
2016-09-26T02:04:15.761Z,49.82
2016-09-26T02:04:48.090Z,49.82
2016-09-26T02:05:20.420Z,49.82
2016-09-26T02:05:52.760Z,49.73
2016-09-26T02:06:25.087Z,49.73
2016-09-26T02:06:57.417Z,49.73
2016-09-26T02:07:29.750Z,49.91
2016-09-26T02:08:02.080Z,49.63
2016-09-26T02:08:34.402Z,49.82
2016-09-26T02:09:06.740Z,49.82
2016-09-26T02:09:39.067Z,49.82
2016-09-26T02:10:11.393Z,49.82
2016-09-26T02:10:43.729Z,49.82
2016-09-26T02:11:16.054Z,50.01
2016-09-26T02:11:48.383Z,49.73
2016-09-26T02:12:20.723Z,49.82
2016-09-26T02:12:53.043Z,49.73
2016-09-26T02:13:25.359Z,49.91
2016-09-26T02:13:57.693Z,49.82
2016-09-26T02:14:30.034Z,49.63
2016-09-26T02:15:02.360Z,49.82
2016-09-26T02:15:34.683Z,49.91
2016-09-26T02:16:07.004Z,50.01
2016-09-26T02:16:39.334Z,49.82
2016-09-26T02:17:11.656Z,49.91
2016-09-26T02:17:43.979Z,50.01
2016-09-26T02:18:16.302Z,49.82
2016-09-26T02:18:48.618Z,49.73
2016-09-26T02:19:20.944Z,50.21
2016-09-26T02:19:53.256Z,49.53
2016-09-26T02:20:25.575Z,50.11
2016-09-26T02:20:57.915Z,49.63
2016-09-26T02:21:30.244Z,50.01
2016-09-26T02:22:02.574Z,49.91
2016-09-26T02:22:34.908Z,49.63
2016-09-26T02:23:07.225Z,49.91
2016-09-26T02:23:39.556Z,49.63
2016-09-26T02:24:11.886Z,50.11
2016-09-26T02:24:44.214Z,49.63
2016-09-26T02:25:16.533Z,49.91
2016-09-26T02:25:48.857Z,49.53
2016-09-26T02:26:21.183Z,49.63
2016-09-26T02:26:53.503Z,50.01
2016-09-26T02:27:25.835Z,50.3
2016-09-26T02:27:58.162Z,50.11
2016-09-26T02:28:30.489Z,50.11
2016-09-26T02:29:02.808Z,50.01
2016-09-26T02:29:35.145Z,49.91
2016-09-26T02:30:07.486Z,50.11
2016-09-26T02:30:39.829Z,50.21
2016-09-26T02:31:12.151Z,50.11
2016-09-26T02:31:44.478Z,50.21
2016-09-26T02:32:16.818Z,49.82
2016-09-26T02:32:49.162Z,50.21
2016-09-26T02:33:21.489Z,49.91
2016-09-26T02:33:53.811Z,50.11
2016-09-26T02:34:26.129Z,49.91
2016-09-26T02:34:58.444Z,50.11
2016-09-26T02:35:30.778Z,50.01
2016-09-26T02:36:03.099Z,50.01
2016-09-26T02:36:35.418Z,50.11
2016-09-26T02:37:07.748Z,50.01
2016-09-26T02:37:40.073Z,50.01
2016-09-26T02:38:12.396Z,50.01
2016-09-26T02:38:44.740Z,50.01
2016-09-26T02:39:17.057Z,50.01
2016-09-26T02:39:49.384Z,50.01
2016-09-26T02:40:21.711Z,49.91
2016-09-26T02:40:54.034Z,50.01
2016-09-26T02:41:26.367Z,50.01
2016-09-26T02:41:58.691Z,49.63
2016-09-26T02:42:31.021Z,50.01
2016-09-26T02:43:03.346Z,50.49
2016-09-26T02:43:35.777Z,50.49
2016-09-26T02:44:08.112Z,49.82
2016-09-26T02:44:40.434Z,50.49
2016-09-26T02:45:12.751Z,49.82
2016-09-26T02:45:45.085Z,49.73
2016-09-26T02:46:17.411Z,50.49
2016-09-26T02:46:49.738Z,49.82
2016-09-26T02:47:22.072Z,49.82
2016-09-26T02:47:54.388Z,49.82
2016-09-26T02:48:26.707Z,49.91
2016-09-26T02:48:59.025Z,50.3
2016-09-26T02:49:31.353Z,50.49
2016-09-26T02:50:03.669Z,50.01
2016-09-26T02:50:36.015Z,49.91
2016-09-26T02:51:08.332Z,50.01
2016-09-26T02:51:40.670Z,50.01
2016-09-26T02:52:12.999Z,50.11
2016-09-26T02:52:45.314Z,50.01
2016-09-26T02:53:17.633Z,50.01
2016-09-26T02:53:49.964Z,50.21
2016-09-26T02:54:22.287Z,50.21
2016-09-26T02:54:54.615Z,50.21
2016-09-26T02:55:26.950Z,50.3
2016-09-26T02:55:59.261Z,49.73
2016-09-26T02:56:31.584Z,50.3
2016-09-26T02:57:03.903Z,49.73
2016-09-26T02:57:36.226Z,50.11
2016-09-26T02:58:08.559Z,50.01
2016-09-26T02:58:40.880Z,50.01
2016-09-26T02:59:13.206Z,50.01
2016-09-26T02:59:45.541Z,50.01
2016-09-26T03:00:17.867Z,49.73
2016-09-26T03:00:50.196Z,50.27
2016-09-26T03:01:22.525Z,50.21
2016-09-26T03:01:54.854Z,49.79
2016-09-26T03:02:27.170Z,49.99
2016-09-26T03:02:59.508Z,49.99
2016-09-26T03:03:31.843Z,50.3
2016-09-26T03:04:04.170Z,50.01
2016-09-26T03:04:36.497Z,50.21
2016-09-26T03:05:08.828Z,50.18
2016-09-26T03:05:41.158Z,50.21
2016-09-26T03:06:13.478Z,50.27
2016-09-26T03:06:45.804Z,49.99
2016-09-26T03:07:18.133Z,50.11
2016-09-26T03:07:50.463Z,50.11
2016-09-26T03:08:22.787Z,49.89
2016-09-26T03:08:55.101Z,50.09
2016-09-26T03:09:27.418Z,49.82
2016-09-26T03:09:59.751Z,49.99
2016-09-26T03:10:32.069Z,50.09
2016-09-26T03:11:04.396Z,49.79
2016-09-26T03:11:36.710Z,50.09
2016-09-26T03:12:09.048Z,50.11
2016-09-26T03:12:41.389Z,50.01
2016-09-26T03:13:13.720Z,50.21
2016-09-26T03:13:46.061Z,50.01
2016-09-26T03:14:18.390Z,50.21
2016-09-26T03:14:50.702Z,50.4
2016-09-26T03:15:23.023Z,49.91
2016-09-26T03:15:55.344Z,50.21
2016-09-26T03:16:27.656Z,50.37
2016-09-26T03:16:59.981Z,50.09
2016-09-26T03:17:32.293Z,50.11
2016-09-26T03:18:04.614Z,49.7
2016-09-26T03:18:36.944Z,49.89
2016-09-26T03:19:09.267Z,50.47
2016-09-26T03:19:41.603Z,50.57
2016-09-26T03:20:13.931Z,50.18
2016-09-26T03:20:46.267Z,49.99
2016-09-26T03:21:18.583Z,50.11
2016-09-26T03:21:50.921Z,50.18
2016-09-26T03:22:23.246Z,50.57
2016-09-26T03:22:55.571Z,50.37
2016-09-26T03:23:27.896Z,50.01
2016-09-26T03:24:00.223Z,50.09
2016-09-26T03:24:32.553Z,50.27
2016-09-26T03:25:04.901Z,50.18
2016-09-26T03:25:37.230Z,50.57
2016-09-26T03:26:09.560Z,49.99
2016-09-26T03:26:41.893Z,50.27
2016-09-26T03:27:14.230Z,49.99
2016-09-26T03:27:46.563Z,50.37
2016-09-26T03:28:18.895Z,50.18
2016-09-26T03:28:51.204Z,50.27
2016-09-26T03:29:23.531Z,49.99
2016-09-26T03:29:55.866Z,50.27
2016-09-26T03:30:28.188Z,50.18
2016-09-26T03:31:00.516Z,50.47
2016-09-26T03:31:32.845Z,49.99
2016-09-26T03:32:05.181Z,49.99
2016-09-26T03:32:37.486Z,50.18
2016-09-26T03:33:09.812Z,50.27
2016-09-26T03:33:42.137Z,49.99
2016-09-26T03:34:14.479Z,49.79
2016-09-26T03:34:46.822Z,50.09
2016-09-26T03:35:19.161Z,49.89
2016-09-26T03:35:51.479Z,50.27
2016-09-26T03:36:23.811Z,50.18
2016-09-26T03:36:56.148Z,50.27
2016-09-26T03:37:28.477Z,49.89
2016-09-26T03:38:00.793Z,50.27
2016-09-26T03:38:33.113Z,49.89
2016-09-26T03:39:05.435Z,49.99
2016-09-26T03:39:37.759Z,49.99
2016-09-26T03:40:10.099Z,49.99
2016-09-26T03:40:42.444Z,50.27
2016-09-26T03:41:14.779Z,50.37
2016-09-26T03:41:47.119Z,49.99
2016-09-26T03:42:19.445Z,50.27
2016-09-26T03:42:51.758Z,50.37
2016-09-26T03:43:24.077Z,50.09
2016-09-26T03:43:56.394Z,50.27
2016-09-26T03:44:28.712Z,50.18
2016-09-26T03:45:01.032Z,50.27
2016-09-26T03:45:33.366Z,50.27
2016-09-26T03:46:05.697Z,50.09
2016-09-26T03:46:38.068Z,50.37
2016-09-26T03:47:10.397Z,50.47
2016-09-26T03:47:42.723Z,50.47
2016-09-26T03:48:15.042Z,50.37
2016-09-26T03:48:47.380Z,50.37
2016-09-26T03:49:19.695Z,50.18
2016-09-26T03:49:52.028Z,50.37
2016-09-26T03:50:24.353Z,50.18
2016-09-26T03:50:56.672Z,50.09
2016-09-26T03:51:28.984Z,50.27
2016-09-26T03:52:01.319Z,50.37
2016-09-26T03:52:33.653Z,50.47
2016-09-26T03:53:05.982Z,50.27
2016-09-26T03:53:38.309Z,50.18
2016-09-26T03:54:10.658Z,50.47
2016-09-26T03:54:42.995Z,50.18
2016-09-26T03:55:15.337Z,50.27
2016-09-26T03:55:47.682Z,50.37
2016-09-26T03:56:20.006Z,50.47
2016-09-26T03:56:52.309Z,50.47
2016-09-26T03:57:24.653Z,50.27
2016-09-26T03:57:56.989Z,50.37
2016-09-26T03:58:29.320Z,50.47
2016-09-26T03:59:01.630Z,50.57
2016-09-26T03:59:33.957Z,50.47
2016-09-26T04:00:06.293Z,50.09
2016-09-26T04:00:38.625Z,50.27
2016-09-26T04:01:10.954Z,50.37
2016-09-26T04:01:43.284Z,50.27
2016-09-26T04:02:15.602Z,50.09
2016-09-26T04:02:47.956Z,50.47
2016-09-26T04:03:20.372Z,50.47
2016-09-26T04:03:52.688Z,50.47
2016-09-26T04:04:25.040Z,50.18
2016-09-26T04:04:57.375Z,50.18
2016-09-26T04:05:29.702Z,50.57
2016-09-26T04:06:02.044Z,50.37
2016-09-26T04:06:34.349Z,50.37
2016-09-26T04:07:06.697Z,50.18
2016-09-26T04:07:39.030Z,50.27
2016-09-26T04:08:11.356Z,50.27
2016-09-26T04:08:43.679Z,50.37
2016-09-26T04:09:15.985Z,50.66
2016-09-26T04:09:48.311Z,50.57
2016-09-26T04:10:20.647Z,50.47
2016-09-26T04:10:52.971Z,50.37
2016-09-26T04:11:25.275Z,50.57
2016-09-26T04:11:57.588Z,50.27
2016-09-26T04:12:29.921Z,50.27
2016-09-26T04:13:02.248Z,50.27
2016-09-26T04:13:34.583Z,50.47
2016-09-26T04:14:06.916Z,50.18
2016-09-26T04:14:39.240Z,50.37
2016-09-26T04:15:11.568Z,50.57
2016-09-26T04:15:43.903Z,50.76
2016-09-26T04:16:16.232Z,50.57
2016-09-26T04:16:48.571Z,50.37
2016-09-26T04:17:20.897Z,50.47
2016-09-26T04:17:53.237Z,50.18
2016-09-26T04:18:25.569Z,50.66
2016-09-26T04:18:57.893Z,50.66
2016-09-26T04:19:30.224Z,50.57
2016-09-26T04:20:02.542Z,50.18
2016-09-26T04:20:34.864Z,50.66
2016-09-26T04:21:07.205Z,50.18
2016-09-26T04:21:39.530Z,49.99
2016-09-26T04:22:11.839Z,50.85
2016-09-26T04:22:44.176Z,50.76
2016-09-26T04:23:16.503Z,50.57
2016-09-26T04:23:48.829Z,50.57
2016-09-26T04:24:21.166Z,50.66
2016-09-26T04:24:53.487Z,50.66
2016-09-26T04:25:25.816Z,50.66
2016-09-26T04:25:58.146Z,50.76
2016-09-26T04:26:30.488Z,50.37
2016-09-26T04:27:02.819Z,49.89
2016-09-26T04:27:35.129Z,50.76
2016-09-26T04:28:07.476Z,50.66
2016-09-26T04:28:39.796Z,49.89
2016-09-26T04:29:12.119Z,50.57
2016-09-26T04:29:44.446Z,49.89
2016-09-26T04:30:16.778Z,50.57
2016-09-26T04:30:49.096Z,50.76
2016-09-26T04:31:21.424Z,50.76
2016-09-26T04:31:53.747Z,50.66
2016-09-26T04:32:26.086Z,50.66
2016-09-26T04:32:58.419Z,50.76
2016-09-26T04:33:30.756Z,50.66
2016-09-26T04:34:03.072Z,50.57
2016-09-26T04:34:35.404Z,50.66
2016-09-26T04:35:07.737Z,50.57
2016-09-26T04:35:40.057Z,50.66
2016-09-26T04:36:12.394Z,50.66
2016-09-26T04:36:44.736Z,50.85
2016-09-26T04:37:17.062Z,50.66
2016-09-26T04:37:49.402Z,50.66
2016-09-26T04:38:21.734Z,50.76
2016-09-26T04:38:54.064Z,50.85
2016-09-26T04:39:26.389Z,50.76
2016-09-26T04:39:58.723Z,50.76
2016-09-26T04:40:31.033Z,50.57
2016-09-26T04:41:03.362Z,50.85
2016-09-26T04:41:35.686Z,50.66
2016-09-26T04:42:08.002Z,50.85
2016-09-26T04:42:40.331Z,50.57
2016-09-26T04:43:12.664Z,50.95
2016-09-26T04:43:44.981Z,50.85
2016-09-26T04:44:17.302Z,50.95
2016-09-26T04:44:49.626Z,50.66
2016-09-26T04:45:21.945Z,50.95
2016-09-26T04:45:54.278Z,50.95
2016-09-26T04:46:26.612Z,51.14
2016-09-26T04:46:58.937Z,50.57
2016-09-26T04:47:31.266Z,50.57
2016-09-26T04:48:03.594Z,50.57
2016-09-26T04:48:35.925Z,50.37
2016-09-26T04:49:08.272Z,50.63
2016-09-26T04:49:40.634Z,51.24
2016-09-26T04:50:12.956Z,50.57
2016-09-26T04:50:45.277Z,51.14
2016-09-26T04:51:17.581Z,51.14
2016-09-26T04:51:49.909Z,51.14
2016-09-26T04:52:22.240Z,51.14
2016-09-26T04:52:54.561Z,50.47
2016-09-26T04:53:26.884Z,50.47
2016-09-26T04:53:59.223Z,51.24
2016-09-26T04:54:31.549Z,50.37
2016-09-26T04:55:03.879Z,50.45
2016-09-26T04:55:36.216Z,50.45
2016-09-26T04:56:08.545Z,51.14
2016-09-26T04:56:40.871Z,50.35
2016-09-26T04:57:13.203Z,50.45
2016-09-26T04:57:45.534Z,51.12
2016-09-26T04:58:17.867Z,51.12
2016-09-26T04:58:50.178Z,50.45
2016-09-26T04:59:22.507Z,51.14
2016-09-26T04:59:54.842Z,51.12
2016-09-26T05:00:27.167Z,50.45
2016-09-26T05:00:59.508Z,51.02
2016-09-26T05:01:31.883Z,51.02
2016-09-26T05:02:04.270Z,51.12
2016-09-26T05:02:36.615Z,50.35
2016-09-26T05:03:08.956Z,50.37
2016-09-26T05:03:42.033Z,51.12
2016-09-26T05:04:14.361Z,51.02
2016-09-26T05:04:46.682Z,51.02
2016-09-26T05:05:20.001Z,51.02
2016-09-26T05:05:52.321Z,50.45
2016-09-26T05:06:24.656Z,50.35
2016-09-26T05:06:57.004Z,50.35
2016-09-26T05:07:29.351Z,50.35
2016-09-26T05:08:01.672Z,50.45
2016-09-26T05:08:33.992Z,51.12
2016-09-26T05:09:06.331Z,51.02
2016-09-26T05:09:38.658Z,51.12
2016-09-26T05:10:10.992Z,50.45
2016-09-26T05:10:43.330Z,51.02
2016-09-26T05:11:15.660Z,50.45
2016-09-26T05:11:47.988Z,50.45
2016-09-26T05:12:20.315Z,50.45
2016-09-26T05:12:52.642Z,51.12
2016-09-26T05:13:24.978Z,51.02
2016-09-26T05:13:57.290Z,50.45
2016-09-26T05:14:29.597Z,50.45
2016-09-26T05:15:01.934Z,50.45
2016-09-26T05:15:34.256Z,50.93
2016-09-26T05:16:06.601Z,50.45
2016-09-26T05:16:38.925Z,50.45
2016-09-26T05:17:11.246Z,51.02
2016-09-26T05:17:43.560Z,50.45
2016-09-26T05:18:15.911Z,50.93
2016-09-26T05:18:48.236Z,50.45
2016-09-26T05:19:20.548Z,50.93
2016-09-26T05:19:52.874Z,50.54
2016-09-26T05:20:25.219Z,51.02
2016-09-26T05:20:57.551Z,50.54
2016-09-26T05:21:29.906Z,51.02
2016-09-26T05:22:03.041Z,50.54
2016-09-26T05:22:36.152Z,50.93
2016-09-26T05:23:08.466Z,50.93
2016-09-26T05:23:40.783Z,50.54
2016-09-26T05:24:13.114Z,50.45
2016-09-26T05:24:45.431Z,50.45
2016-09-26T05:25:17.744Z,50.93
2016-09-26T05:25:50.065Z,50.54
2016-09-26T05:26:22.399Z,50.45
2016-09-26T05:26:54.713Z,50.93
2016-09-26T05:27:27.053Z,50.93
2016-09-26T05:27:59.382Z,50.93
2016-09-26T05:28:31.709Z,50.54
2016-09-26T05:29:04.049Z,50.93
2016-09-26T05:29:36.378Z,50.73
2016-09-26T05:30:08.710Z,50.45
2016-09-26T05:30:41.036Z,50.83
2016-09-26T05:31:13.373Z,50.45
2016-09-26T05:31:45.715Z,50.93
2016-09-26T05:32:19.105Z,50.54
2016-09-26T05:32:51.434Z,50.54
2016-09-26T05:33:23.752Z,50.83
2016-09-26T05:33:56.105Z,50.93
2016-09-26T05:34:30.091Z,50.93
2016-09-26T05:35:03.628Z,50.54
2016-09-26T05:35:36.250Z,50.93
2016-09-26T05:36:08.854Z,50.93
2016-09-26T05:36:41.484Z,50.54
2016-09-26T05:37:16.102Z,50.63
2016-09-26T05:37:48.661Z,50.83
2016-09-26T05:38:22.109Z,50.63
2016-09-26T05:38:54.585Z,50.83
2016-09-26T05:39:27.170Z,50.93
2016-09-26T05:39:59.738Z,50.83
2016-09-26T05:40:32.474Z,50.63
2016-09-26T05:41:05.179Z,50.54
2016-09-26T05:41:38.847Z,50.83
2016-09-26T05:42:11.431Z,50.83
2016-09-26T05:42:43.991Z,50.73
2016-09-26T05:43:16.514Z,50.83
2016-09-26T05:43:49.056Z,50.93
2016-09-26T05:44:21.627Z,50.73
2016-09-26T05:44:54.611Z,50.83
2016-09-26T05:45:26.928Z,50.73
2016-09-26T05:46:00.051Z,50.73
2016-09-26T05:46:32.472Z,50.93
2016-09-26T05:47:04.786Z,50.93
2016-09-26T05:47:37.122Z,50.63
2016-09-26T05:48:09.467Z,51.21
2016-09-26T05:48:41.801Z,50.73
2016-09-26T05:49:14.275Z,51.02
2016-09-26T05:49:47.974Z,50.93
2016-09-26T05:50:20.581Z,50.63
2016-09-26T05:50:52.926Z,51.21
2016-09-26T05:51:25.293Z,50.63
2016-09-26T05:51:58.452Z,51.31
2016-09-26T05:52:30.765Z,50.83
2016-09-26T05:53:03.106Z,51.21
2016-09-26T05:53:35.421Z,50.73
2016-09-26T05:54:07.759Z,51.31
2016-09-26T05:54:40.093Z,51.31
2016-09-26T05:55:12.405Z,51.31
2016-09-26T05:55:44.761Z,51.21
2016-09-26T05:56:17.089Z,50.93
2016-09-26T05:56:49.412Z,50.73
2016-09-26T05:57:21.725Z,51.21
2016-09-26T05:57:55.565Z,51.02
2016-09-26T05:58:28.594Z,50.93
2016-09-26T05:59:00.907Z,50.83
2016-09-26T05:59:34.365Z,51.21
2016-09-26T06:00:07.172Z,50.93
2016-09-26T06:00:39.690Z,50.83
2016-09-26T06:01:12.643Z,51.12
2016-09-26T06:01:45.129Z,51.02
2016-09-26T06:02:17.905Z,51.02
2016-09-26T06:02:50.766Z,50.95
2016-09-26T06:03:23.089Z,51.21
2016-09-26T06:03:55.440Z,50.83
2016-09-26T06:04:27.777Z,50.93
2016-09-26T06:05:00.136Z,50.93
2016-09-26T06:05:33.552Z,51.21
2016-09-26T06:06:05.874Z,50.95
2016-09-26T06:06:38.187Z,51.02
2016-09-26T06:07:10.481Z,50.83
2016-09-26T06:07:42.821Z,51.12
2016-09-26T06:08:15.200Z,50.93
2016-09-26T06:08:47.532Z,51.02
2016-09-26T06:09:19.858Z,51.21
2016-09-26T06:09:52.181Z,51.21
2016-09-26T06:10:24.525Z,51.02
2016-09-26T06:10:56.881Z,51.31
2016-09-26T06:11:29.203Z,50.95
2016-09-26T06:12:01.538Z,50.95
2016-09-26T06:12:34.491Z,51.31
2016-09-26T06:13:06.818Z,51.21
2016-09-26T06:13:39.137Z,51.21
2016-09-26T06:14:11.465Z,51.02
2016-09-26T06:14:43.784Z,50.93
2016-09-26T06:15:16.120Z,50.83
2016-09-26T06:15:48.494Z,51.12
2016-09-26T06:16:20.921Z,50.85
2016-09-26T06:16:55.080Z,51.31
2016-09-26T06:17:27.471Z,51.24
2016-09-26T06:17:59.853Z,50.93
2016-09-26T06:18:32.337Z,51.21
2016-09-26T06:19:05.577Z,51.02
2016-09-26T06:19:38.672Z,51.24
2016-09-26T06:20:11.390Z,51.21
2016-09-26T06:20:46.147Z,50.93
2016-09-26T06:21:20.600Z,51.24
2016-09-26T06:21:55.108Z,51.21
2016-09-26T06:22:34.608Z,50.83
2016-09-26T06:23:07.946Z,50.93
2016-09-26T06:23:41.603Z,50.95
2016-09-26T06:24:15.603Z,51.21
2016-09-26T06:24:49.039Z,51.14
2016-09-26T06:25:21.638Z,50.95
2016-09-26T06:25:55.091Z,50.85
2016-09-26T06:26:27.521Z,51.31
2016-09-26T06:26:59.902Z,51.02
2016-09-26T06:27:32.320Z,51.24
2016-09-26T06:28:06.101Z,51.21
2016-09-26T06:28:38.483Z,51.24
2016-09-26T06:29:10.958Z,50.95
2016-09-26T06:29:47.340Z,50.85
2016-09-26T06:30:21.600Z,51.24
2016-09-26T06:30:57.606Z,50.85
2016-09-26T06:31:31.381Z,51.24
2016-09-26T06:32:07.107Z,51.14
2016-09-26T06:32:43.111Z,51.24
2016-09-26T06:33:18.134Z,51.24
2016-09-26T06:33:53.951Z,51.24
2016-09-26T06:34:28.944Z,51.24
2016-09-26T06:35:03.300Z,51.24
2016-09-26T06:35:36.762Z,51.31
2016-09-26T06:36:10.321Z,50.85
2016-09-26T06:36:44.213Z,51.24
2016-09-26T06:37:17.558Z,51.34
2016-09-26T06:37:53.096Z,51.24
2016-09-26T06:38:26.625Z,51.24
2016-09-26T06:38:59.061Z,51.24
2016-09-26T06:39:31.389Z,51.24
2016-09-26T06:40:03.719Z,51.24
2016-09-26T06:40:36.117Z,51.24
2016-09-26T06:41:08.517Z,51.24
2016-09-26T06:41:40.934Z,51.14
2016-09-26T06:42:13.255Z,51.24
2016-09-26T06:42:45.583Z,51.24
2016-09-26T06:43:32.664Z,51.24
2016-09-26T06:44:04.985Z,51.24
2016-09-26T06:44:37.318Z,51.14
2016-09-26T06:45:09.642Z,51.24
2016-09-26T06:45:42.236Z,51.24
2016-09-26T06:46:16.589Z,51.14
2016-09-26T06:46:49.029Z,51.14
2016-09-26T06:47:21.360Z,51.14
2016-09-26T06:47:55.249Z,51.21
2016-09-26T06:48:28.691Z,51.24
2016-09-26T06:49:01.210Z,51.24
2016-09-26T06:49:33.702Z,51.34
2016-09-26T06:50:06.038Z,51.24
2016-09-26T06:50:38.374Z,51.24
2016-09-26T06:51:10.778Z,51.24
2016-09-26T06:51:44.543Z,51.24
2016-09-26T06:52:17.087Z,51.24
2016-09-26T06:52:49.550Z,51.14
2016-09-26T06:53:24.127Z,51.24
2016-09-26T06:53:58.314Z,51.24
2016-09-26T06:54:34.604Z,51.14
2016-09-26T06:55:07.110Z,51.14
2016-09-26T06:55:42.118Z,51.34
2016-09-26T06:56:15.494Z,51.14
2016-09-26T06:56:47.839Z,51.24
2016-09-26T06:57:21.093Z,51.14
2016-09-26T06:57:55.577Z,51.14
2016-09-26T06:58:27.990Z,51.34